Home   Weather   Bosnia-Herzegovina   Banja Luka   Past weeks
Flag for Bosnia-Herzegovina

Past Weather in Banja Luka, Bosnia-Herzegovina — Yesterday and Last 2 Weeks

Currently: 70 °F. Clear. (Weather station: Banja Luka, Bosnia-Herzegovina). See more current weather

Past Weather in Banja Luka — Graph

°F

Banja Luka Temperature Yesterday

Maximum temperature yesterday: 91 °F (at 1:00 pm)
Minimum temperature yesterday: 63 °F (at 4:30 am)
Average temperature yesterday: 79 °F

High & Low Weather Summary for the Past Weeks

 TemperatureHumidityPressure
High91 °F (Jun 20, 1:00 pm)100% (Jun 7, 6:00 am)30.21 "Hg (Jun 7, 6:00 am)
Low48 °F (Jun 15, 4:00 am)31% (Jun 18, 3:00 pm)29.83 "Hg (Jun 20, 4:00 pm)
Average70 °F67%30.04 "Hg
* Reported Jun 6 12:00 am — Jun 21 12:00 am, Banja Luka. Weather by CustomWeather, © 2021

Note: Actual official high and low records may vary slightly from our data, if they occured in-between our weather recording intervals... More about our weather records

Banja Luka Weather History for the Previous 24 Hours

Scroll right to see more
 ConditionsComfort  
Time TempWeatherWind HumidityBarometerVisibility
12:00 am
Mon, Jun 21
72 °FClear.2 mph83%29.83 "Hg10 mi
11:30 pm
Sun, Jun 20
72 °FClear.1 mph88%29.83 "Hg10 mi
11:00 pm73 °FClear.1 mph78%29.83 "Hg10 mi
10:30 pm73 °FClear.2 mph83%29.86 "Hg10 mi
10:00 pm73 °FClear.1 mph78%29.86 "Hg10 mi
9:30 pm75 °FClear.2 mph74%29.83 "Hg10 mi
9:00 pm77 °FClear.1 mph74%29.83 "Hg10 mi
8:30 pm79 °FSunny.1 mph70%29.83 "Hg10 mi
8:00 pm84 °FSunny.2 mph51%29.83 "Hg10 mi
7:30 pm86 °FSunny.3 mph49%29.83 "Hg10 mi
7:00 pm86 °FSunny.5 mph49%29.83 "Hg10 mi
6:30 pm88 °FSunny.6 mph46%29.83 "Hg10 mi
6:00 pm88 °FSunny.7 mph46%29.83 "Hg10 mi
5:30 pm90 °FSunny.8 mph41%29.83 "Hg10 mi
5:00 pm91 °FSunny.5 mph38%29.83 "Hg10 mi
4:30 pm91 °FSunny.5 mph36%29.83 "Hg10 mi
4:00 pm90 °FSunny.5 mph41%29.83 "Hg10 mi
3:30 pm91 °FPassing clouds.9 mph38%29.86 "HgN/A
3:00 pm91 °FPassing clouds.5 mph36%29.86 "HgN/A
2:30 pm91 °FPassing clouds.6 mph34%29.86 "HgN/A
2:00 pm90 °FPassing clouds.6 mph36%29.86 "HgN/A
1:30 pm90 °FPassing clouds.5 mph38%29.89 "HgN/A
1:00 pm91 °FPassing clouds.5 mph36%29.89 "HgN/A
12:30 pm90 °FPassing clouds.5 mph36%29.89 "HgN/A
12:00 pm90 °FPassing clouds.3 mph38%29.92 "HgN/A
11:30 am88 °FPassing clouds.2 mph46%29.92 "HgN/A
11:00 am86 °FPassing clouds.3 mph49%29.92 "HgN/A
10:30 am86 °FPassing clouds.3 mph49%29.92 "HgN/A
10:00 am84 °FPassing clouds.3 mph55%29.92 "HgN/A
9:30 am84 °FSunny.2 mph51%29.95 "Hg10 mi
9:00 am81 °FSunny.2 mph58%29.95 "Hg10 mi
8:30 am79 °FSunny.2 mph61%29.95 "Hg10 mi
8:00 am77 °FSunny.2 mph65%29.92 "Hg10 mi
7:30 am75 °FSunny.3 mph65%29.92 "Hg10 mi
7:00 am70 °FSunny.7 mph78%29.92 "Hg10 mi
6:30 am68 °FSunny.5 mph83%29.92 "Hg10 mi
6:00 am66 °FSunny.3 mph83%29.92 "Hg10 mi
5:30 am64 °FSunny.3 mph88%29.92 "Hg10 mi
5:00 am63 °FClear.3 mph94%29.92 "Hg10 mi
4:30 am63 °FClear.2 mph94%29.92 "Hg10 mi
4:00 am64 °FClear.2 mph94%29.92 "Hg10 mi
3:30 am64 °FClear.3 mph94%29.92 "Hg10 mi
2:30 am66 °FClear.3 mph88%29.92 "Hg10 mi
2:00 am66 °FClear.3 mph88%29.92 "Hg10 mi
1:30 am66 °FClear.2 mph88%29.92 "Hg10 mi
1:00 am66 °FClear.2 mph88%29.95 "Hg10 mi
Weather by CustomWeather, © 2021

See weather overview